createdAt,value
2019-06-01T00:02:24.120Z,56.81
2019-06-01T00:04:56.181Z,57.07
2019-06-01T00:07:29.099Z,57.07
2019-06-01T00:10:01.694Z,57.16
2019-06-01T00:12:33.949Z,57.29
2019-06-01T00:15:06.071Z,57.36
2019-06-01T00:17:38.118Z,57.65
2019-06-01T00:20:10.455Z,57.66
2019-06-01T00:22:43.371Z,57.72
2019-06-01T00:25:15.901Z,57.95
2019-06-01T00:27:48.813Z,58.14
2019-06-01T00:30:27.042Z,57.98
2019-06-01T00:32:56.384Z,58.02
2019-06-01T00:35:36.559Z,58.23
2019-06-01T00:38:10.162Z,58.33
2019-06-01T00:40:44.370Z,58.39
2019-06-01T00:43:18.535Z,58.58
2019-06-01T00:45:50.716Z,58.65
2019-06-01T00:48:24.304Z,58.81
2019-06-01T00:50:57.038Z,58.94
2019-06-01T00:53:29.378Z,59.09
2019-06-01T00:56:02.437Z,59.05
2019-06-01T00:58:35.884Z,59.11
2019-06-01T01:01:09.327Z,59.31
2019-06-01T01:03:41.651Z,59.39
2019-06-01T01:06:14.107Z,59.31
2019-06-01T01:08:55.231Z,59.56
2019-06-01T01:11:28.235Z,59.64
2019-06-01T01:14:01.022Z,59.78
2019-06-01T01:16:34.136Z,59.75
2019-06-01T01:19:07.599Z,59.90
2019-06-01T01:21:39.503Z,60.12
2019-06-01T01:24:20.773Z,60.15
2019-06-01T01:26:52.677Z,60.26
2019-06-01T01:29:25.221Z,60.25
2019-06-01T01:31:57.544Z,60.39
2019-06-01T01:34:38.094Z,60.45
2019-06-01T01:37:30.255Z,60.59
2019-06-01T01:40:03.786Z,60.71
2019-06-01T01:42:36.366Z,60.78
2019-06-01T01:45:09.600Z,60.87
2019-06-01T01:47:42.941Z,60.94
2019-06-01T01:50:17.487Z,61.15
2019-06-01T01:52:50.627Z,61.32
2019-06-01T01:55:33.396Z,61.35
2019-06-01T01:58:05.950Z,61.41
2019-06-01T02:00:46.146Z,61.47
2019-06-01T02:03:19.120Z,61.62
2019-06-01T02:05:51.114Z,61.67
2019-06-01T02:08:23.988Z,61.74
2019-06-01T02:10:59.542Z,61.85
2019-06-01T02:13:33.782Z,62.05
2019-06-01T02:16:06.237Z,62.12
2019-06-01T02:18:37.693Z,62.18
2019-06-01T02:21:11.130Z,62.37
2019-06-01T02:23:43.142Z,62.24
2019-06-01T02:26:16.427Z,62.37
2019-06-01T02:28:50.488Z,62.46
2019-06-01T02:31:39.801Z,62.63
2019-06-01T02:33:58.662Z,62.63
2019-06-01T02:36:32.861Z,62.74
2019-06-01T02:39:07.123Z,62.87
2019-06-01T02:41:40.589Z,63.00
2019-06-01T02:44:13.002Z,63.01
2019-06-01T02:46:45.853Z,63.12
2019-06-01T02:49:17.801Z,63.15
2019-06-01T02:51:50.323Z,63.19
2019-06-01T02:54:24.801Z,63.32
2019-06-01T02:57:14.616Z,63.49
2019-06-01T02:59:48.362Z,63.55
2019-06-01T03:02:21.746Z,63.66
2019-06-01T03:04:57.083Z,63.80
2019-06-01T03:07:31.908Z,63.89
2019-06-01T03:10:06.957Z,63.89
2019-06-01T03:12:45.822Z,64.12
2019-06-01T03:15:19.228Z,64.07
2019-06-01T03:17:56.639Z,64.27
2019-06-01T03:20:31.942Z,64.37
2019-06-01T03:23:05.765Z,64.39
2019-06-01T03:25:41.099Z,64.55
2019-06-01T03:28:16.727Z,64.63
2019-06-01T03:30:49.480Z,64.62
2019-06-01T03:33:23.329Z,64.68
2019-06-01T03:35:56.799Z,64.82
2019-06-01T03:38:30.143Z,64.91
2019-06-01T03:41:04.010Z,64.87
2019-06-01T03:43:35.983Z,64.94
2019-06-01T03:46:09.474Z,65.14
2019-06-01T03:48:41.538Z,65.14
2019-06-01T03:51:22.963Z,65.30
2019-06-01T03:53:55.021Z,65.38
2019-06-01T03:56:28.041Z,65.50
2019-06-01T03:59:03.075Z,65.65
2019-06-01T04:01:36.564Z,65.63
2019-06-01T04:04:09.426Z,65.70
2019-06-01T04:06:42.344Z,65.77
2019-06-01T04:09:14.959Z,65.82
2019-06-01T04:11:47.582Z,65.98
2019-06-01T04:14:20.494Z,66.03
2019-06-01T04:16:53.854Z,66.01
2019-06-01T04:19:35.532Z,66.08
2019-06-01T04:22:12.868Z,66.17
2019-06-01T04:24:45.638Z,66.38
2019-06-01T04:27:19.459Z,66.65
2019-06-01T04:29:52.637Z,66.68
2019-06-01T04:32:26.405Z,66.95
2019-06-01T04:34:58.581Z,67.09
2019-06-01T04:37:31.352Z,67.08
2019-06-01T04:40:05.420Z,67.27
2019-06-01T04:42:44.903Z,67.25
2019-06-01T04:45:18.792Z,67.24
2019-06-01T04:47:50.318Z,67.51
2019-06-01T04:50:30.646Z,67.53
2019-06-01T04:53:13.308Z,67.50
2019-06-01T04:55:45.620Z,67.75
2019-06-01T04:58:17.563Z,67.69
2019-06-01T05:01:01.658Z,67.69
2019-06-01T05:03:35.001Z,67.62
2019-06-01T05:06:07.514Z,67.77
2019-06-01T05:08:40.052Z,67.77
2019-06-01T05:11:13.586Z,68.21
2019-06-01T05:13:46.577Z,69.03
2019-06-01T05:16:20.264Z,71.09
2019-06-01T05:18:54.178Z,69.32
2019-06-01T05:21:26.218Z,68.15
2019-06-01T05:23:59.462Z,69.74
2019-06-01T05:26:32.640Z,69.90
2019-06-01T05:29:07.457Z,68.37
2019-06-01T05:31:39.803Z,67.32
2019-06-01T05:34:20.496Z,66.27
2019-06-01T05:36:52.847Z,63.11
2019-06-01T05:39:24.871Z,64.00
2019-06-01T05:41:57.224Z,64.85
2019-06-01T05:44:30.931Z,65.74
2019-06-01T05:47:04.486Z,66.09
2019-06-01T05:49:36.407Z,66.92
2019-06-01T05:52:18.812Z,65.83
2019-06-01T05:54:50.540Z,66.32
2019-06-01T05:57:23.429Z,67.21
2019-06-01T05:59:55.656Z,66.99
2019-06-01T06:02:27.562Z,66.17
2019-06-01T06:05:00.195Z,65.75
2019-06-01T06:07:35.436Z,65.07
2019-06-01T06:10:09.947Z,64.86
2019-06-01T06:12:42.463Z,65.22
2019-06-01T06:15:15.714Z,66.12
2019-06-01T06:18:05.140Z,64.39
2019-06-01T06:20:50.291Z,64.50
2019-06-01T06:23:24.153Z,63.65
2019-06-01T06:25:55.616Z,63.31
2019-06-01T06:28:28.489Z,64.87
2019-06-01T06:31:00.518Z,63.46
2019-06-01T06:33:36.757Z,60.86
2019-06-01T06:36:07.764Z,60.62
2019-06-01T06:38:40.326Z,62.09
2019-06-01T06:41:24.349Z,58.95
2019-06-01T06:43:57.246Z,58.08
2019-06-01T06:46:41.273Z,58.43
2019-06-01T06:49:14.927Z,59.97
2019-06-01T06:51:47.288Z,56.46
2019-06-01T06:54:19.936Z,55.67
2019-06-01T06:56:59.579Z,53.34
2019-06-01T06:59:32.006Z,54.59
2019-06-01T07:02:05.558Z,53.86
2019-06-01T07:04:47.672Z,52.62
2019-06-01T07:07:20.230Z,51.72
2019-06-01T07:09:52.570Z,49.97
2019-06-01T07:12:25.385Z,49.90
2019-06-01T07:14:58.843Z,50.30
2019-06-01T07:17:31.909Z,50.91
2019-06-01T07:20:05.417Z,51.25
2019-06-01T07:22:37.546Z,50.28
2019-06-01T07:25:12.511Z,48.90
2019-06-01T07:27:45.163Z,49.45
2019-06-01T07:30:18.527Z,49.27
2019-06-01T07:32:51.579Z,48.79
2019-06-01T07:35:24.423Z,48.93
2019-06-01T07:37:57.630Z,48.87
2019-06-01T07:40:30.765Z,48.64
2019-06-01T07:43:03.143Z,48.55
2019-06-01T07:45:35.853Z,49.31
2019-06-01T07:48:08.409Z,49.45
2019-06-01T07:50:40.928Z,49.45
2019-06-01T07:53:14.904Z,48.73
2019-06-01T07:55:48.014Z,48.04
2019-06-01T07:58:20.966Z,48.38
2019-06-01T08:00:53.696Z,48.65
2019-06-01T08:03:28.719Z,48.43
2019-06-01T08:06:00.136Z,48.05
2019-06-01T08:08:32.681Z,48.55
2019-06-01T08:11:04.347Z,48.24
2019-06-01T08:13:36.954Z,48.32
2019-06-01T08:16:09.329Z,47.75
2019-06-01T08:18:43.538Z,47.60
2019-06-01T08:21:16.770Z,46.93
2019-06-01T08:23:48.032Z,47.82
2019-06-01T08:26:20.581Z,46.97
2019-06-01T08:28:52.397Z,47.22
2019-06-01T08:31:24.898Z,46.65
2019-06-01T08:33:57.462Z,47.52
2019-06-01T08:36:29.669Z,47.14
2019-06-01T08:39:02.167Z,47.30
2019-06-01T08:41:34.843Z,45.86
2019-06-01T08:44:09.182Z,45.84
2019-06-01T08:46:51.205Z,46.59
2019-06-01T08:49:25.858Z,46.65
2019-06-01T08:51:59.516Z,46.87
2019-06-01T08:54:34.346Z,46.99
2019-06-01T08:57:06.939Z,44.89
2019-06-01T08:59:39.969Z,45.67
2019-06-01T09:02:14.048Z,45.43
2019-06-01T09:04:46.027Z,45.62
2019-06-01T09:07:19.519Z,46.04
2019-06-01T09:09:52.478Z,44.09
2019-06-01T09:12:25.121Z,43.90
2019-06-01T09:14:58.983Z,44.18
2019-06-01T09:17:31.577Z,43.96
2019-06-01T09:20:04.295Z,44.46
2019-06-01T09:22:37.624Z,44.07
2019-06-01T09:25:10.513Z,43.00
2019-06-01T09:27:42.679Z,43.97
2019-06-01T09:30:16.449Z,43.04
2019-06-01T09:32:48.410Z,42.83
2019-06-01T09:35:19.217Z,41.90
2019-06-01T09:37:51.309Z,42.06
2019-06-01T09:40:23.562Z,41.98
2019-06-01T09:42:55.629Z,42.64
2019-06-01T09:45:28.209Z,41.64
2019-06-01T09:47:59.751Z,41.35
2019-06-01T09:50:33.453Z,41.33
2019-06-01T09:53:05.570Z,40.30
2019-06-01T09:55:38.464Z,41.29
2019-06-01T09:58:11.230Z,41.10
2019-06-01T10:00:44.076Z,41.17
2019-06-01T10:03:16.458Z,41.27
2019-06-01T10:06:01.456Z,40.29
2019-06-01T10:08:22.676Z,40.47
2019-06-01T10:10:56.276Z,39.30
2019-06-01T10:13:28.230Z,39.73
2019-06-01T10:15:59.065Z,38.68
2019-06-01T10:18:30.968Z,39.41
2019-06-01T10:21:03.007Z,39.88
2019-06-01T10:23:34.745Z,38.85
2019-06-01T10:26:07.816Z,38.93
2019-06-01T10:28:40.338Z,38.86
2019-06-01T10:31:11.942Z,38.49
2019-06-01T10:33:43.424Z,38.06
2019-06-01T10:36:20.510Z,38.96
2019-06-01T10:38:49.916Z,38.09
2019-06-01T10:41:22.985Z,38.33
2019-06-01T10:43:55.878Z,37.95
2019-06-01T10:46:29.077Z,37.67
2019-06-01T10:49:01.086Z,38.09
2019-06-01T10:51:32.496Z,37.75
2019-06-01T10:54:05.616Z,37.13
2019-06-01T10:56:38.480Z,36.73
2019-06-01T10:59:11.272Z,37.60
2019-06-01T11:01:42.977Z,36.70
2019-06-01T11:04:15.536Z,37.35
2019-06-01T11:06:48.801Z,36.56
2019-06-01T11:09:20.737Z,36.33
2019-06-01T11:11:53.505Z,36.61
2019-06-01T11:14:24.676Z,36.75
2019-06-01T11:16:57.036Z,36.78
2019-06-01T11:19:28.939Z,36.86
2019-06-01T11:22:00.497Z,34.51
2019-06-01T11:24:33.268Z,34.33
2019-06-01T11:27:05.417Z,35.32
2019-06-01T11:29:42.878Z,35.11
2019-06-01T11:32:10.737Z,35.17
2019-06-01T11:34:42.494Z,34.67
2019-06-01T11:37:15.796Z,34.26
2019-06-01T11:39:47.699Z,33.06
2019-06-01T11:42:19.921Z,33.48
2019-06-01T11:44:52.565Z,34.08
2019-06-01T11:47:23.577Z,33.46
2019-06-01T11:49:55.218Z,33.58
2019-06-01T11:52:30.996Z,33.63
2019-06-01T11:55:04.041Z,32.97
2019-06-01T11:57:35.576Z,33.90
2019-06-01T12:00:09.419Z,32.89
2019-06-01T12:02:41.823Z,33.13
2019-06-01T12:05:14.484Z,33.20
2019-06-01T12:07:46.094Z,32.60
2019-06-01T12:10:17.977Z,32.49
2019-06-01T12:12:50.497Z,32.45
2019-06-01T12:15:26.579Z,32.71
2019-06-01T12:17:57.827Z,32.43
2019-06-01T12:20:29.697Z,32.14
2019-06-01T12:23:01.596Z,31.98
2019-06-01T12:25:33.796Z,31.68
2019-06-01T12:28:05.336Z,31.45
2019-06-01T12:30:37.510Z,30.78
2019-06-01T12:33:09.416Z,30.95
2019-06-01T12:35:42.011Z,31.45
2019-06-01T12:38:13.176Z,31.10
2019-06-01T12:40:43.690Z,31.50
2019-06-01T12:43:14.196Z,32.06
2019-06-01T12:45:45.700Z,32.10
2019-06-01T12:48:17.136Z,31.58
2019-06-01T12:50:50.757Z,31.64
2019-06-01T12:53:19.858Z,31.60
2019-06-01T12:55:50.389Z,32.19
2019-06-01T12:58:21.296Z,31.67
2019-06-01T13:00:52.522Z,30.75
2019-06-01T13:03:22.865Z,30.99
2019-06-01T13:05:53.416Z,30.72
2019-06-01T13:08:23.517Z,30.72
2019-06-01T13:10:53.877Z,30.81
2019-06-01T13:13:24.076Z,31.15
2019-06-01T13:15:54.764Z,31.23
2019-06-01T13:18:25.224Z,31.76
2019-06-01T13:20:56.157Z,31.41
2019-06-01T13:23:27.046Z,30.69
2019-06-01T13:25:57.401Z,31.35
2019-06-01T13:28:37.650Z,31.07
2019-06-01T13:30:59.481Z,31.18
2019-06-01T13:33:29.816Z,31.08
2019-06-01T13:36:00.101Z,31.42
2019-06-01T13:38:31.419Z,31.04
2019-06-01T13:41:03.437Z,31.32
2019-06-01T13:43:34.977Z,31.76
2019-06-01T13:46:06.623Z,31.88
2019-06-01T13:48:37.157Z,32.61
2019-06-01T13:51:09.136Z,32.15
2019-06-01T13:53:40.376Z,31.75
2019-06-01T13:56:11.856Z,31.90
2019-06-01T13:58:42.676Z,32.04
2019-06-01T14:01:14.736Z,31.81
2019-06-01T14:03:45.537Z,31.97
2019-06-01T14:06:17.513Z,32.07
2019-06-01T14:08:51.160Z,31.99
2019-06-01T14:11:22.537Z,32.60
2019-06-01T14:13:56.174Z,32.28
2019-06-01T14:16:27.676Z,32.23
2019-06-01T14:19:01.002Z,32.70
2019-06-01T14:21:33.420Z,32.58
2019-06-01T14:24:05.441Z,32.20
2019-06-01T14:26:37.563Z,32.20
2019-06-01T14:29:09.351Z,32.09
2019-06-01T14:31:41.893Z,31.60
2019-06-01T14:34:14.237Z,31.81
2019-06-01T14:36:46.410Z,32.41
2019-06-01T14:39:18.825Z,32.86
2019-06-01T14:41:51.890Z,33.02
2019-06-01T14:44:23.385Z,32.70
2019-06-01T14:47:04.983Z,32.64
2019-06-01T14:49:28.852Z,32.75
2019-06-01T14:52:00.753Z,32.95
2019-06-01T14:54:33.383Z,32.30
2019-06-01T14:57:05.098Z,31.70
2019-06-01T14:59:37.961Z,29.86
2019-06-01T15:02:14.382Z,30.07
2019-06-01T15:04:46.096Z,30.75
2019-06-01T15:07:18.027Z,31.53
2019-06-01T15:09:50.152Z,31.32
2019-06-01T15:12:22.915Z,31.54
2019-06-01T15:14:55.510Z,31.80
2019-06-01T15:17:27.713Z,31.38
2019-06-01T15:20:00.418Z,31.35
2019-06-01T15:22:31.888Z,31.30
2019-06-01T15:25:04.706Z,31.26
2019-06-01T15:27:38.005Z,31.10
2019-06-01T15:30:10.824Z,30.47
2019-06-01T15:32:42.693Z,30.67
2019-06-01T15:35:16.362Z,31.07
2019-06-01T15:37:51.292Z,30.22
2019-06-01T15:40:23.542Z,30.35
2019-06-01T15:42:55.250Z,30.67
2019-06-01T15:45:41.318Z,31.13
2019-06-01T15:48:13.564Z,31.02
2019-06-01T15:50:45.237Z,30.93
2019-06-01T15:53:17.589Z,31.01
2019-06-01T15:55:49.517Z,31.05
2019-06-01T15:58:22.504Z,31.15
2019-06-01T16:00:56.735Z,30.83
2019-06-01T16:03:28.396Z,31.24
2019-06-01T16:06:01.297Z,31.11
2019-06-01T16:08:34.619Z,30.84
2019-06-01T16:11:07.474Z,31.05
2019-06-01T16:13:40.237Z,31.13
2019-06-01T16:16:13.367Z,30.94
2019-06-01T16:18:46.092Z,31.04
2019-06-01T16:21:18.637Z,30.82
2019-06-01T16:23:50.740Z,30.59
2019-06-01T16:26:22.403Z,30.60
2019-06-01T16:28:54.880Z,30.49
2019-06-01T16:31:26.763Z,30.22
2019-06-01T16:33:59.015Z,30.53
2019-06-01T16:36:31.414Z,30.46
2019-06-01T16:39:07.816Z,30.74
2019-06-01T16:41:41.047Z,30.57
2019-06-01T16:44:13.735Z,30.62
2019-06-01T16:46:45.799Z,30.33
2019-06-01T16:49:17.765Z,30.17
2019-06-01T16:51:54.420Z,30.55
2019-06-01T16:54:26.888Z,30.64
2019-06-01T16:56:59.384Z,30.57
2019-06-01T16:59:32.143Z,30.55
2019-06-01T17:02:06.106Z,30.60
2019-06-01T17:04:40.541Z,30.44
2019-06-01T17:07:12.274Z,30.66
2019-06-01T17:09:46.140Z,30.50
2019-06-01T17:12:18.056Z,30.60
2019-06-01T17:14:58.858Z,30.51
2019-06-01T17:17:38.118Z,30.64
2019-06-01T17:20:07.351Z,30.36
2019-06-01T17:22:41.601Z,30.77
2019-06-01T17:25:14.018Z,31.04
2019-06-01T17:27:45.649Z,31.10
2019-06-01T17:30:18.068Z,31.27
2019-06-01T17:32:50.030Z,31.29
2019-06-01T17:35:22.057Z,31.06
2019-06-01T17:37:53.729Z,31.00
2019-06-01T17:40:36.841Z,30.85
2019-06-01T17:43:00.914Z,31.07
2019-06-01T17:45:41.713Z,31.37
2019-06-01T17:48:25.752Z,31.10
2019-06-01T17:50:49.657Z,31.37
2019-06-01T17:53:21.465Z,31.47
2019-06-01T17:55:53.539Z,31.35
2019-06-01T17:58:26.356Z,31.45
2019-06-01T18:00:58.573Z,31.25
2019-06-01T18:03:32.437Z,31.02
2019-06-01T18:06:05.843Z,30.90
2019-06-01T18:08:38.919Z,31.12
2019-06-01T18:11:10.794Z,31.11
2019-06-01T18:13:42.568Z,31.48
2019-06-01T18:16:15.644Z,31.63
2019-06-01T18:18:47.147Z,31.69
2019-06-01T18:21:19.576Z,31.70
2019-06-01T18:23:53.551Z,31.87
2019-06-01T18:26:25.438Z,32.00
2019-06-01T18:28:57.706Z,31.90
2019-06-01T18:31:31.324Z,32.00
2019-06-01T18:34:05.467Z,32.22
2019-06-01T18:36:45.148Z,32.53
2019-06-01T18:39:19.590Z,32.33
2019-06-01T18:41:54.213Z,32.50
2019-06-01T18:44:26.194Z,32.53
2019-06-01T18:46:59.725Z,32.62
2019-06-01T18:49:31.564Z,32.95
2019-06-01T18:52:06.494Z,32.98
2019-06-01T18:54:38.698Z,33.01
2019-06-01T18:57:20.467Z,33.17
2019-06-01T18:59:47.390Z,33.10
2019-06-01T19:02:20.564Z,33.28
2019-06-01T19:04:52.518Z,33.29
2019-06-01T19:07:25.775Z,33.39
2019-06-01T19:09:57.248Z,33.42
2019-06-01T19:12:29.706Z,33.54
2019-06-01T19:15:01.422Z,33.65
2019-06-01T19:17:42.690Z,33.80
2019-06-01T19:20:17.961Z,33.84
2019-06-01T19:22:49.502Z,34.02
2019-06-01T19:25:21.171Z,34.06
2019-06-01T19:27:53.131Z,34.20
2019-06-01T19:30:39.212Z,34.27
2019-06-01T19:33:15.464Z,34.23
2019-06-01T19:35:46.522Z,34.46
2019-06-01T19:38:19.544Z,34.54
2019-06-01T19:40:51.899Z,34.52
2019-06-01T19:43:24.225Z,34.49
2019-06-01T19:45:57.570Z,34.78
2019-06-01T19:48:31.060Z,34.79
2019-06-01T19:51:04.030Z,35.09
2019-06-01T19:53:36.016Z,35.26
2019-06-01T19:56:08.823Z,35.32
2019-06-01T19:58:41.946Z,35.62
2019-06-01T20:01:14.526Z,35.83
2019-06-01T20:03:47.082Z,36.10
2019-06-01T20:06:20.459Z,36.55
2019-06-01T20:08:53.215Z,36.76
2019-06-01T20:11:26.342Z,36.70
2019-06-01T20:13:57.934Z,36.82
2019-06-01T20:16:38.654Z,37.03
2019-06-01T20:19:13.432Z,37.20
2019-06-01T20:21:46.512Z,37.38
2019-06-01T20:24:19.405Z,37.87
2019-06-01T20:27:00.500Z,37.66
2019-06-01T20:29:32.507Z,38.08
2019-06-01T20:32:06.534Z,38.57
2019-06-01T20:34:52.802Z,38.56
2019-06-01T20:37:24.870Z,38.92
2019-06-01T20:39:56.409Z,39.21
2019-06-01T20:42:32.787Z,39.32
2019-06-01T20:45:03.680Z,39.62
2019-06-01T20:47:36.437Z,39.94
2019-06-01T20:50:12.620Z,40.13
2019-06-01T20:52:45.899Z,40.05
2019-06-01T20:55:21.237Z,40.15
2019-06-01T20:57:52.403Z,40.23
2019-06-01T21:00:24.934Z,40.35
2019-06-01T21:02:57.139Z,40.86
2019-06-01T21:05:28.884Z,40.88
2019-06-01T21:08:01.722Z,40.99
2019-06-01T21:10:34.271Z,41.62
2019-06-01T21:13:08.116Z,41.74
2019-06-01T21:15:42.132Z,41.81
2019-06-01T21:18:14.306Z,42.22
2019-06-01T21:20:46.294Z,42.25
2019-06-01T21:23:20.753Z,42.63
2019-06-01T21:25:53.561Z,42.94
2019-06-01T21:28:26.369Z,43.31
2019-06-01T21:30:58.449Z,44.15
2019-06-01T21:33:32.703Z,44.21
2019-06-01T21:36:05.348Z,44.35
2019-06-01T21:38:39.878Z,44.65
2019-06-01T21:41:12.394Z,44.90
2019-06-01T21:43:46.042Z,46.07
2019-06-01T21:46:19.672Z,45.54
2019-06-01T21:48:52.293Z,45.98
2019-06-01T21:51:26.012Z,45.93
2019-06-01T21:54:00.340Z,45.80
2019-06-01T21:56:32.035Z,45.76
2019-06-01T21:59:04.911Z,45.86
2019-06-01T22:01:37.827Z,45.81
2019-06-01T22:04:11.183Z,46.46
2019-06-01T22:06:46.326Z,46.54
2019-06-01T22:09:17.368Z,47.09
2019-06-01T22:11:49.265Z,46.84
2019-06-01T22:14:23.249Z,47.34
2019-06-01T22:16:56.438Z,47.30
2019-06-01T22:19:30.234Z,47.36
2019-06-01T22:22:02.201Z,47.28
2019-06-01T22:24:33.999Z,47.23
2019-06-01T22:27:06.305Z,47.47
2019-06-01T22:29:38.405Z,47.49
2019-06-01T22:32:10.588Z,47.47
2019-06-01T22:34:43.508Z,47.44
2019-06-01T22:37:16.802Z,47.53
2019-06-01T22:39:49.591Z,47.61
2019-06-01T22:42:22.465Z,47.67
2019-06-01T22:44:57.138Z,47.72
2019-06-01T22:47:30.142Z,47.83
2019-06-01T22:50:02.972Z,47.94
2019-06-01T22:52:36.138Z,47.95
2019-06-01T22:55:10.279Z,48.02
2019-06-01T22:57:44.958Z,48.09
2019-06-01T23:00:19.978Z,48.28
2019-06-01T23:02:51.491Z,48.61
2019-06-01T23:05:23.133Z,48.65
2019-06-01T23:07:54.790Z,48.83
2019-06-01T23:10:31.691Z,49.17
2019-06-01T23:13:00.448Z,49.26
2019-06-01T23:15:32.686Z,49.29
2019-06-01T23:18:05.781Z,49.33
2019-06-01T23:20:38.363Z,49.38
2019-06-01T23:23:11.252Z,49.44
2019-06-01T23:25:43.985Z,49.56
2019-06-01T23:28:16.044Z,49.75
2019-06-01T23:30:48.546Z,49.83
2019-06-01T23:33:20.766Z,50.20
2019-06-01T23:35:54.037Z,50.32
2019-06-01T23:38:26.810Z,50.27
2019-06-01T23:40:59.542Z,50.41
2019-06-01T23:43:32.993Z,51.05
2019-06-01T23:46:05.589Z,51.05
2019-06-01T23:48:37.452Z,51.64
2019-06-01T23:51:14.121Z,51.53
2019-06-01T23:53:45.860Z,51.53
2019-06-01T23:56:17.956Z,51.71
2019-06-01T23:58:50.194Z,51.84
